Time;durP1;ratioP1;P1;durP2;ratioP2;P2;SDS_P1;SDS_P2;PMS_P1;PMS_P2;Temp;Humidity;BMP_temperature;BMP_pressure;BME280_temperature;BME280_humidity;BME280_pressure;Samples;Min_cycle;Max_cycle;Signal;HPM_P1;HPM_P2
2022/03/12 00:01:31;;;;;;;117.50;37.17;;;;;;;-6.62;65.50;100861.27;1719140;81;21099;-74
2022/03/12 00:04:00;;;;;;;116.35;38.53;;;;;;;-6.65;65.65;100856.78;1708573;81;20982;-76
2022/03/12 00:06:30;;;;;;;112.57;37.67;;;;;;;-6.68;65.93;100847.72;1720004;81;22118;-74
2022/03/12 00:08:57;;;;;;;93.40;32.20;;;;;;;-6.72;66.05;100849.94;1730967;81;20932;-74
2022/03/12 00:11:27;;;;;;;106.27;33.42;;;;;;;-6.72;66.07;100845.92;1722036;81;21060;-74
2022/03/12 00:13:57;;;;;;;121.25;35.75;;;;;;;-6.72;66.13;100841.89;1683887;84;21181;-76
2022/03/12 00:16:25;;;;;;;120.00;37.17;;;;;;;-6.74;66.33;100840.70;1695725;82;21066;-74
2022/03/12 00:18:55;;;;;;;110.83;36.70;;;;;;;-6.75;66.22;100834.17;1719476;81;21256;-75
2022/03/12 00:21:34;;;;;;;118.02;38.42;;;;;;;-6.76;66.24;100839.21;1718940;81;21039;-73
2022/03/12 00:24:02;;;;;;;132.85;39.83;;;;;;;-6.76;66.21;100836.53;1721562;81;21486;-73
2022/03/12 00:26:29;;;;;;;113.97;37.10;;;;;;;-6.77;66.11;100831.66;1725115;81;21123;-75
2022/03/12 00:28:58;;;;;;;118.80;39.80;;;;;;;-6.76;66.04;100832.02;1699289;82;20955;-76
2022/03/12 00:31:26;;;;;;;128.87;40.43;;;;;;;-6.74;66.01;100831.84;1687609;83;21590;-75
2022/03/12 00:33:53;;;;;;;126.62;42.23;;;;;;;-6.75;66.07;100824.78;1693209;82;21497;-75
2022/03/12 00:36:20;;;;;;;113.72;36.00;;;;;;;-6.74;66.16;100822.45;1691151;83;21025;-74
2022/03/12 00:38:48;;;;;;;113.60;39.03;;;;;;;-6.76;66.21;100814.58;1693741;83;21072;-74
2022/03/12 00:41:16;;;;;;;103.65;37.28;;;;;;;-6.76;66.34;100812.40;1692647;83;21553;-75
2022/03/12 00:43:45;;;;;;;120.17;38.83;;;;;;;-6.77;66.23;100812.89;1694303;82;21092;-74
2022/03/12 00:46:11;;;;;;;107.60;36.68;;;;;;;-6.78;66.37;100811.73;1696353;82;21121;-75
2022/03/12 00:48:39;;;;;;;119.75;40.17;;;;;;;-6.81;66.47;100805.38;1677682;83;21127;-74
2022/03/12 00:51:08;;;;;;;121.77;39.80;;;;;;;-6.84;66.50;100806.05;1724871;81;20996;-75
2022/03/12 00:53:35;;;;;;;120.75;39.95;;;;;;;-6.85;66.78;100804.39;1725274;81;20993;-76
2022/03/12 00:56:03;;;;;;;116.30;39.53;;;;;;;-6.88;66.76;100805.23;1717418;81;21466;-74
2022/03/12 00:58:30;;;;;;;128.18;42.15;;;;;;;-6.88;66.73;100801.21;1727119;81;20948;-75
2022/03/12 01:00:57;;;;;;;123.18;39.80;;;;;;;-6.89;66.71;100796.34;1715698;81;21061;-75
2022/03/12 01:03:24;;;;;;;114.05;39.38;;;;;;;-6.91;66.59;100797.54;1684939;83;21579;-74
2022/03/12 01:05:58;;;;;;;129.87;42.67;;;;;;;-6.97;66.77;100795.03;1683318;84;21080;-75
2022/03/12 01:08:27;;;;;;;111.12;40.75;;;;;;;-6.99;67.09;100799.72;1696006;83;21463;-74
2022/03/12 01:10:58;;;;;;;118.80;41.00;;;;;;;-7.01;67.25;100800.42;1704134;82;20985;-74
2022/03/12 01:13:27;;;;;;;123.47;42.93;;;;;;;-7.01;67.54;100799.08;1700401;82;21207;-74
2022/03/12 01:15:57;;;;;;;119.15;42.93;;;;;;;-6.99;67.83;100797.05;1689415;82;21545;-75
2022/03/12 01:18:26;;;;;;;137.12;43.15;;;;;;;-6.97;67.96;100791.02;1702310;83;21055;-75
2022/03/12 01:20:54;;;;;;;130.10;44.95;;;;;;;-6.96;68.05;100789.50;1685942;83;21407;-76
2022/03/12 01:23:24;;;;;;;117.20;41.80;;;;;;;-6.98;68.21;100791.51;1685963;83;21084;-74
2022/03/12 01:25:52;;;;;;;124.78;45.25;;;;;;;-6.97;68.38;100791.02;1697101;83;21001;-75
2022/03/12 01:28:21;;;;;;;122.17;40.52;;;;;;;-6.93;68.37;100792.85;1697559;81;20969;-74
2022/03/12 01:30:48;;;;;;;130.43;41.75;;;;;;;-6.94;68.23;100785.30;1696462;82;21073;-75
2022/03/12 01:33:18;;;;;;;118.75;43.33;;;;;;;-6.95;68.26;100787.66;1702922;82;21242;-74
2022/03/12 01:35:44;;;;;;;118.77;42.98;;;;;;;-6.94;68.28;100789.85;1695887;82;21213;-74
2022/03/12 01:38:11;;;;;;;138.80;45.00;;;;;;;-6.93;68.49;100791.51;1689187;82;21056;-74
2022/03/12 01:40:38;;;;;;;131.25;46.70;;;;;;;-6.90;68.66;100796.02;1688124;82;20993;-74
2022/03/12 01:43:05;;;;;;;135.65;45.05;;;;;;;-6.91;68.89;100793.02;1697994;82;20958;-75
2022/03/12 01:45:35;;;;;;;121.35;44.13;;;;;;;-6.93;68.97;100789.67;1696025;83;21102;-75
2022/03/12 01:48:04;;;;;;;135.68;45.38;;;;;;;-6.93;69.12;100790.17;1688800;83;20937;-75
2022/03/12 01:50:35;;;;;;;125.65;46.45;;;;;;;-6.93;69.14;100785.66;1703796;82;21048;-76
2022/03/12 01:53:09;;;;;;;133.78;45.43;;;;;;;-6.92;69.18;100787.31;1670166;83;21226;-74
2022/03/12 01:55:39;;;;;;;140.80;46.55;;;;;;;-6.91;69.15;100793.02;1671330;84;20969;-74
2022/03/12 01:58:07;;;;;;;145.17;49.50;;;;;;;-6.91;69.24;100788.16;1675020;84;22058;-72
2022/03/12 02:00:45;;;;;;;141.20;51.63;;;;;;;-6.91;69.32;100790.34;1679136;84;21072;-74
2022/03/12 02:03:15;;;;;;;139.72;49.55;;;;;;;-6.92;69.38;100790.48;1665823;84;20920;-75
2022/03/12 02:05:42;;;;;;;150.32;49.53;;;;;;;-6.95;69.43;100787.66;1661703;84;21018;-74
2022/03/12 02:08:13;;;;;;;145.77;48.38;;;;;;;-6.97;69.59;100789.67;1659849;84;21449;-76
2022/03/12 02:10:44;;;;;;;149.40;48.28;;;;;;;-6.98;69.71;100786.67;1657668;84;21224;-77
2022/03/12 02:13:11;;;;;;;146.40;48.78;;;;;;;-6.98;69.81;100786.67;1671579;84;21067;-75
2022/03/12 02:15:40;;;;;;;135.52;47.73;;;;;;;-6.95;69.76;100786.33;1669847;84;21490;-74
2022/03/12 02:18:08;;;;;;;142.53;46.28;;;;;;;-6.93;69.80;100784.31;1678407;84;21040;-73
2022/03/12 02:20:38;;;;;;;138.50;45.33;;;;;;;-6.91;69.75;100780.96;1679984;84;20940;-76
2022/03/12 02:23:08;;;;;;;138.20;46.02;;;;;;;-6.91;69.75;100775.59;1677445;84;21258;-73
2022/03/12 02:25:36;;;;;;;132.90;44.25;;;;;;;-6.90;69.69;100779.09;1676564;83;20997;-74
2022/03/12 02:28:13;;;;;;;153.68;45.03;;;;;;;-6.90;69.71;100779.94;1686648;84;21059;-74
2022/03/12 02:30:48;;;;;;;133.80;44.60;;;;;;;-6.92;69.45;100779.27;1689885;84;20948;-74
2022/03/12 02:33:13;;;;;;;143.95;45.63;;;;;;;-6.93;69.49;100769.56;1680255;84;21104;-76
2022/03/12 02:35:42;;;;;;;138.10;44.30;;;;;;;-6.94;69.52;100771.90;1674660;83;21635;-76
2022/03/12 02:38:08;;;;;;;133.25;44.00;;;;;;;-6.93;69.39;100768.23;1695888;83;21064;-76
2022/03/12 02:40:35;;;;;;;121.57;42.20;;;;;;;-6.91;69.27;100762.20;1703257;82;21060;-75
2022/03/12 02:43:04;;;;;;;129.07;44.27;;;;;;;-6.90;69.11;100761.67;1695871;83;20981;-75
2022/03/12 02:45:33;;;;;;;140.10;44.60;;;;;;;-6.90;68.99;100763.86;1633556;84;20928;-76
2022/03/12 02:48:00;;;;;;;132.15;41.02;;;;;;;-6.89;69.02;100760.16;1680270;84;22233;-75
2022/03/12 02:50:27;;;;;;;118.25;41.33;;;;;;;-6.84;69.07;100760.99;1680180;84;21284;-75
2022/03/12 02:52:54;;;;;;;103.67;34.35;;;;;;;-6.75;69.20;100753.23;1679266;84;21068;-76
2022/03/12 02:55:23;;;;;;;96.60;32.20;;;;;;;-6.68;69.09;100743.98;1683206;84;21416;-75
2022/03/12 02:57:50;;;;;;;92.27;31.97;;;;;;;-6.62;68.87;100742.45;1679061;84;20945;-75
2022/03/12 03:00:20;;;;;;;92.67;27.35;;;;;;;-6.58;68.58;100743.75;1669875;84;21545;-75
2022/03/12 03:02:56;;;;;;;75.90;26.35;;;;;;;-6.54;68.38;100738.87;1682755;83;21000;-74
2022/03/12 03:05:36;;;;;;;78.97;24.63;;;;;;;-6.52;68.23;100742.22;1680281;84;21027;-74
2022/03/12 03:07:57;;;;;;;68.17;24.47;;;;;;;-6.50;68.10;100733.50;1678166;84;21190;-74
2022/03/12 03:10:35;;;;;;;71.85;24.80;;;;;;;-6.48;68.04;100739.00;1693469;83;21075;-73
2022/03/12 03:13:21;;;;;;;62.00;23.83;;;;;;;-6.44;67.96;100735.96;1694067;82;21071;-74
2022/03/12 03:15:54;;;;;;;62.23;21.77;;;;;;;-6.45;67.83;100733.80;1699021;82;21053;-74
2022/03/12 03:18:24;;;;;;;66.28;22.35;;;;;;;-6.48;67.65;100732.80;1689190;83;21000;-76
2022/03/12 03:20:54;;;;;;;64.45;20.50;;;;;;;-6.52;67.36;100727.47;1688705;83;20960;-75
2022/03/12 03:23:24;;;;;;;55.10;20.50;;;;;;;-6.57;67.48;100727.16;1677044;84;21055;-75
2022/03/12 03:25:51;;;;;;;58.85;21.60;;;;;;;-6.64;67.59;100721.17;1701780;82;21185;-75
2022/03/12 03:28:19;;;;;;;60.90;21.60;;;;;;;-6.69;67.74;100720.87;1699464;82;21119;-74
2022/03/12 03:30:46;;;;;;;57.85;20.35;;;;;;;-6.74;67.87;100724.05;1701196;83;21333;-75
2022/03/12 03:33:20;;;;;;;51.37;19.45;;;;;;;-6.74;67.99;100717.34;1691562;83;20960;-74
2022/03/12 03:35:47;;;;;;;55.30;19.77;;;;;;;-6.70;68.06;100715.16;1692357;82;21166;-75
2022/03/12 03:38:14;;;;;;;63.60;19.27;;;;;;;-6.64;68.04;100720.33;1699539;82;22209;-74
2022/03/12 03:40:42;;;;;;;59.95;20.72;;;;;;;-6.61;68.01;100719.97;1671505;83;21049;-75
2022/03/12 03:43:13;;;;;;;62.17;19.70;;;;;;;-6.54;68.02;100722.78;1670788;84;21023;-75
2022/03/12 03:45:47;;;;;;;63.17;22.67;;;;;;;-6.51;68.11;100723.77;1700955;82;21487;-74
2022/03/12 03:48:20;;;;;;;62.78;20.15;;;;;;;-6.47;68.23;100722.41;1701109;82;20952;-74
2022/03/12 03:50:48;;;;;;;45.97;15.13;;;;;;;-6.39;68.43;100718.83;1686737;82;21134;-76
2022/03/12 03:53:19;;;;;;;56.85;21.25;;;;;;;-6.33;68.43;100713.27;1685875;83;21063;-75
2022/03/12 03:55:46;;;;;;;62.08;22.20;;;;;;;-6.30;68.20;100715.59;1683531;82;21008;-74
2022/03/12 03:58:14;;;;;;;58.95;21.75;;;;;;;-6.29;68.08;100710.04;1705482;83;21471;-76
2022/03/12 04:00:56;;;;;;;69.07;22.77;;;;;;;-6.30;67.90;100707.04;1691674;82;20933;-75
2022/03/12 04:03:25;;;;;;;37.55;14.60;;;;;;;-6.32;67.95;100708.21;1702129;83;20901;-75
2022/03/12 04:05:52;;;;;;;60.78;22.00;;;;;;;-6.35;68.00;100702.72;1695910;82;20905;-75
2022/03/12 04:08:21;;;;;;;51.95;19.35;;;;;;;-6.38;68.10;100704.42;1710110;82;20997;-76
2022/03/12 04:10:50;;;;;;;58.95;20.35;;;;;;;-6.41;68.17;100699.38;1674320;83;21166;-75
2022/03/12 04:13:19;;;;;;;53.42;19.62;;;;;;;-6.48;68.24;100699.26;1697853;82;20985;-74
2022/03/12 04:15:48;;;;;;;53.58;20.65;;;;;;;-6.50;68.33;100701.31;1701648;82;21796;-75
2022/03/12 04:18:21;;;;;;;50.92;18.95;;;;;;;-6.51;68.55;100702.30;1694921;83;20984;-76
2022/03/12 04:20:47;;;;;;;49.65;19.02;;;;;;;-6.50;68.76;100698.63;1705620;82;21001;-74
2022/03/12 04:23:21;;;;;;;59.30;21.42;;;;;;;-6.45;68.94;100703.45;1692247;82;20978;-76
2022/03/12 04:25:49;;;;;;;52.95;19.90;;;;;;;-6.37;69.33;100702.05;1697099;82;20957;-75
2022/03/12 04:28:16;;;;;;;49.18;19.42;;;;;;;-6.30;69.33;100698.98;1697577;83;21801;-75
2022/03/12 04:30:43;;;;;;;44.67;19.05;;;;;;;-6.20;69.50;100697.89;1687758;82;20945;-75
2022/03/12 04:33:11;;;;;;;43.70;16.07;;;;;;;-6.11;69.44;100698.17;1690618;82;20957;-75
2022/03/12 04:35:42;;;;;;;58.95;19.35;;;;;;;-6.02;69.37;100692.20;1701758;82;21076;-75
2022/03/12 04:38:10;;;;;;;55.67;19.35;;;;;;;-5.94;69.45;100688.09;1699724;82;20893;-75
2022/03/12 04:40:42;;;;;;;58.63;18.67;;;;;;;-5.84;69.42;100689.68;1691064;83;21254;-75
2022/03/12 04:43:11;;;;;;;59.87;18.67;;;;;;;-5.77;69.23;100675.36;1694584;83;21447;-75
2022/03/12 04:45:43;;;;;;;54.00;19.70;;;;;;;-5.71;68.89;100677.80;1686322;83;20968;-74
2022/03/12 04:48:17;;;;;;;54.90;20.10;;;;;;;-5.69;68.84;100684.33;1702282;83;21012;-76
2022/03/12 04:50:45;;;;;;;66.28;23.30;;;;;;;-5.65;68.83;100682.95;1647164;84;21446;-75
2022/03/12 04:53:12;;;;;;;56.53;22.27;;;;;;;-5.59;68.80;100686.23;1672803;83;21193;-74
2022/03/12 04:55:40;;;;;;;57.62;21.48;;;;;;;-5.53;68.73;100688.20;1650077;84;20974;-75
2022/03/12 04:58:08;;;;;;;58.23;23.50;;;;;;;-5.45;68.69;100685.09;1656226;84;21056;-75
2022/03/12 05:00:38;;;;;;;83.62;28.17;;;;;;;-5.41;68.61;100681.83;1693716;82;21060;-75
2022/03/12 05:03:11;;;;;;;68.07;24.52;;;;;;;-5.35;68.42;100680.77;1687398;83;20948;-75
2022/03/12 05:05:43;;;;;;;79.60;29.95;;;;;;;-5.32;68.24;100686.61;1691645;82;21250;-76
2022/03/12 05:08:21;;;;;;;77.67;27.50;;;;;;;-5.27;68.02;100692.80;1687582;83;21001;-76
2022/03/12 05:10:50;;;;;;;66.60;23.60;;;;;;;-5.22;68.02;100684.17;1688698;83;21647;-75
2022/03/12 05:13:23;;;;;;;58.75;21.17;;;;;;;-5.20;67.64;100690.20;1707658;82;21065;-76
2022/03/12 05:15:55;;;;;;;53.73;21.63;;;;;;;-5.20;67.44;100693.70;1652388;85;20971;-75
2022/03/12 05:18:23;;;;;;;52.67;17.98;;;;;;;-5.20;67.13;100686.17;1642245;85;21171;-75
2022/03/12 05:20:52;;;;;;;50.20;19.92;;;;;;;-5.20;67.14;100691.01;1683269;83;21267;-76
2022/03/12 05:23:20;;;;;;;49.58;19.25;;;;;;;-5.18;67.18;100685.45;1686453;83;21063;-76
2022/03/12 05:25:49;;;;;;;54.08;20.62;;;;;;;-5.16;67.11;100679.38;1661763;83;21025;-75
2022/03/12 05:28:23;;;;;;;58.52;20.85;;;;;;;-5.14;67.08;100682.22;1692463;82;20960;-76
2022/03/12 05:30:52;;;;;;;40.40;17.12;;;;;;;-5.13;66.94;100681.19;1673652;84;21137;-76
2022/03/12 05:33:19;;;;;;;52.62;18.10;;;;;;;-5.10;67.00;100681.84;1649739;84;21029;-76
2022/03/12 05:35:51;;;;;;;38.08;15.60;;;;;;;-5.09;66.93;100677.62;1647558;85;21163;-75
2022/03/12 05:38:16;;;;;;;40.92;14.18;;;;;;;-5.07;66.73;100669.36;1642520;84;21501;-74
2022/03/12 05:40:43;;;;;;;47.83;14.85;;;;;;;-5.06;66.64;100673.70;1689034;82;21083;-74
2022/03/12 05:43:14;;;;;;;40.65;15.85;;;;;;;-5.01;66.78;100671.29;1711613;83;21200;-77
2022/03/12 05:45:40;;;;;;;38.30;14.53;;;;;;;-4.94;66.99;100670.86;1697262;82;20909;-76
2022/03/12 05:48:09;;;;;;;35.80;13.00;;;;;;;-4.81;66.99;100674.74;1690600;83;21604;-75
2022/03/12 05:50:37;;;;;;;34.73;14.60;;;;;;;-4.70;67.03;100674.74;1701232;82;21024;-76
2022/03/12 05:53:09;;;;;;;37.75;14.63;;;;;;;-4.62;66.69;100669.77;1706770;83;20997;-76
2022/03/12 05:55:35;;;;;;;40.48;14.78;;;;;;;-4.52;66.59;100669.77;1693595;83;21666;-76
2022/03/12 05:58:01;;;;;;;40.67;14.65;;;;;;;-4.44;66.43;100670.17;1694455;82;20913;-76
2022/03/12 06:00:32;;;;;;;41.20;14.65;;;;;;;-4.42;65.90;100671.32;1685490;82;20989;-74
2022/03/12 06:03:00;;;;;;;44.20;13.53;;;;;;;-4.36;66.05;100667.84;1711278;83;21442;-75
2022/03/12 06:05:27;;;;;;;31.50;11.33;;;;;;;-4.29;65.66;100664.72;1703554;83;21068;-76
2022/03/12 06:07:54;;;;;;;41.77;14.55;;;;;;;-4.20;65.53;100664.08;1692515;82;21051;-75
2022/03/12 06:10:28;;;;;;;39.45;16.20;;;;;;;-4.10;65.37;100665.59;1686707;83;21067;-77
2022/03/12 06:12:57;;;;;;;37.73;12.40;;;;;;;-4.01;64.91;100660.39;1699756;83;21478;-76
2022/03/12 06:15:25;;;;;;;40.88;13.30;;;;;;;-3.94;64.71;100657.75;1689032;82;21451;-75
2022/03/12 06:17:54;;;;;;;27.42;10.68;;;;;;;-3.85;64.61;100662.45;1696405;83;20889;-76
2022/03/12 06:20:23;;;;;;;31.20;11.93;;;;;;;-3.76;64.34;100655.91;1699703;82;21174;-75
2022/03/12 06:22:52;;;;;;;30.40;10.88;;;;;;;-3.64;64.08;100658.05;1684177;83;21455;-77
2022/03/12 06:25:22;;;;;;;27.22;10.25;;;;;;;-3.56;63.77;100657.37;1706134;82;21549;-75
2022/03/12 06:28:00;;;;;;;30.23;10.98;;;;;;;-3.46;63.39;100653.48;1703770;82;21087;-76
2022/03/12 06:30:18;;;;;;;28.47;10.95;;;;;;;-3.34;63.65;100658.64;1699467;82;20984;-75
2022/03/12 06:32:47;;;;;;;26.40;10.13;;;;;;;-3.20;63.96;100652.80;1701389;83;21170;-75
2022/03/12 06:35:15;;;;;;;28.00;11.00;;;;;;;-3.06;63.52;100652.86;1705990;83;21193;-75
2022/03/12 06:37:42;;;;;;;27.85;10.90;;;;;;;-2.92;62.94;100648.86;1696077;83;21135;-75
2022/03/12 06:40:14;;;;;;;30.08;10.68;;;;;;;-2.80;62.48;100643.20;1700631;82;21530;-77
2022/03/12 06:42:41;;;;;;;28.15;11.53;;;;;;;-2.70;61.60;100646.34;1694108;82;21120;-76
2022/03/12 06:45:08;;;;;;;30.23;11.80;;;;;;;-2.60;61.42;100642.41;1655960;84;21554;-76
2022/03/12 06:47:38;;;;;;;30.95;12.70;;;;;;;-2.49;61.24;100640.98;1696626;83;20953;-75
2022/03/12 06:50:09;;;;;;;34.50;12.20;;;;;;;-2.39;61.04;100644.08;1673347;84;21022;-77
2022/03/12 06:52:40;;;;;;;30.80;10.90;;;;;;;-2.29;59.93;100627.50;1671920;84;21012;-77
2022/03/12 06:55:09;;;;;;;22.48;9.70;;;;;;;-2.21;59.35;100631.34;1670970;83;20963;-76
2022/03/12 06:57:37;;;;;;;22.60;9.38;;;;;;;-2.14;58.82;100635.91;1690779;82;21172;-76
2022/03/12 07:00:06;;;;;;;33.55;11.93;;;;;;;-2.06;58.79;100631.64;1700890;82;20957;-76
2022/03/12 07:02:34;;;;;;;23.22;9.40;;;;;;;-1.99;58.01;100635.69;1651904;86;21446;-76
2022/03/12 07:05:01;;;;;;;28.20;11.20;;;;;;;-1.92;57.43;100628.41;1681131;83;21023;-77
2022/03/12 07:07:28;;;;;;;25.05;10.13;;;;;;;-1.90;57.41;100626.34;1677486;83;21139;-76
2022/03/12 07:09:57;;;;;;;27.77;11.00;;;;;;;-1.82;57.44;100617.17;1684719;83;21063;-77
2022/03/12 07:12:25;;;;;;;31.42;10.80;;;;;;;-1.75;56.34;100622.05;1673774;83;20952;-76
2022/03/12 07:14:52;;;;;;;29.25;11.95;;;;;;;-1.66;56.21;100616.42;1675613;84;21202;-76
2022/03/12 07:17:20;;;;;;;26.75;10.35;;;;;;;-1.62;56.00;100613.62;1680537;83;21452;-75
2022/03/12 07:19:47;;;;;;;29.40;10.80;;;;;;;-1.51;55.95;100611.60;1671923;84;20961;-76
2022/03/12 07:22:15;;;;;;;28.40;10.78;;;;;;;-1.38;55.78;100611.26;1684391;84;21096;-76
2022/03/12 07:24:42;;;;;;;29.02;11.33;;;;;;;-1.25;55.26;100613.91;1670332;84;20897;-76
2022/03/12 07:27:12;;;;;;;34.65;10.93;;;;;;;-1.12;54.98;100607.61;1679253;84;21155;-75
2022/03/12 07:29:39;;;;;;;26.27;8.73;;;;;;;-0.98;54.83;100603.48;1673465;84;21054;-78
2022/03/12 07:32:08;;;;;;;19.67;8.30;;;;;;;-0.86;54.92;100603.11;1682200;84;20996;-76
2022/03/12 07:34:35;;;;;;;18.25;7.87;;;;;;;-0.70;54.17;100596.04;1675249;84;22045;-76
2022/03/12 07:37:01;;;;;;;22.73;8.70;;;;;;;-0.59;54.26;100587.72;1686173;84;21087;-76
2022/03/12 07:39:29;;;;;;;21.15;8.88;;;;;;;-0.48;54.19;100578.91;1685322;84;21039;-76
2022/03/12 07:41:56;;;;;;;21.62;8.20;;;;;;;-0.35;53.78;100577.97;1675179;83;21032;-75
2022/03/12 07:44:23;;;;;;;24.55;9.40;;;;;;;-0.25;53.23;100574.23;1670597;83;21473;-76
2022/03/12 07:46:51;;;;;;;21.60;8.30;;;;;;;-0.19;52.69;100571.17;1680695;84;21177;-77
2022/03/12 07:49:18;;;;;;;19.27;7.40;;;;;;;-0.10;51.82;100569.53;1689011;83;21036;-77
2022/03/12 07:51:45;;;;;;;14.13;6.03;;;;;;;-0.05;51.15;100568.34;1675875;83;21020;-76
2022/03/12 07:54:14;;;;;;;20.17;7.75;;;;;;;0.02;51.03;100562.31;1698473;82;21569;-74
2022/03/12 07:56:41;;;;;;;22.55;6.78;;;;;;;0.11;51.18;100560.98;1699307;82;20984;-76
2022/03/12 07:59:10;;;;;;;18.02;5.92;;;;;;;0.15;50.57;100560.00;1682062;84;21206;-76
2022/03/12 08:01:37;;;;;;;14.25;6.12;;;;;;;0.21;49.98;100556.38;1646040;85;21137;-78
2022/03/12 08:04:06;;;;;;;10.55;4.70;;;;;;;0.31;50.08;100542.81;1697239;82;21513;-76
2022/03/12 08:06:33;;;;;;;14.68;4.92;;;;;;;0.44;49.23;100548.63;1707723;83;21001;-77
2022/03/12 08:09:00;;;;;;;13.22;5.55;;;;;;;0.42;48.09;100541.23;1673491;84;21063;-76
2022/03/12 08:11:32;;;;;;;15.13;5.20;;;;;;;0.53;48.47;100549.16;1658440;85;21216;-76
2022/03/12 08:14:02;;;;;;;19.17;5.17;;;;;;;0.70;47.83;100543.94;1654410;84;20976;-74
2022/03/12 08:16:31;;;;;;;22.60;6.70;;;;;;;0.86;47.75;100539.73;1645520;84;21079;-76
2022/03/12 08:18:58;;;;;;;20.37;6.62;;;;;;;1.00;46.79;100535.48;1656900;84;21067;-75
2022/03/12 08:21:25;;;;;;;16.75;7.10;;;;;;;1.13;45.13;100534.45;1670710;84;21526;-76
2022/03/12 08:23:52;;;;;;;17.87;7.25;;;;;;;1.17;45.14;100531.58;1677903;83;21152;-75
2022/03/12 08:26:19;;;;;;;15.35;6.45;;;;;;;1.24;45.38;100528.77;1679808;84;20871;-76
2022/03/12 08:28:47;;;;;;;20.10;7.60;;;;;;;1.33;44.09;100532.81;1668830;84;21093;-76
2022/03/12 08:31:15;;;;;;;22.48;8.05;;;;;;;1.42;44.11;100527.84;1672760;83;20988;-77
2022/03/12 08:33:42;;;;;;;17.20;7.25;;;;;;;1.55;43.85;100528.17;1669214;84;20961;-77
2022/03/12 08:36:09;;;;;;;20.08;7.40;;;;;;;1.63;43.28;100525.10;1672009;84;21124;-76
2022/03/12 08:38:37;;;;;;;15.08;7.25;;;;;;;1.66;43.20;100523.79;1671319;84;21054;-77
2022/03/12 08:41:07;;;;;;;15.65;8.23;;;;;;;1.73;43.78;100525.03;1676300;84;20926;-77
2022/03/12 08:43:36;;;;;;;17.75;8.48;;;;;;;1.81;43.63;100524.67;1672194;84;21042;-76
2022/03/12 08:46:05;;;;;;;19.82;8.70;;;;;;;1.90;43.86;100515.63;1665351;84;20976;-76
2022/03/12 08:48:40;;;;;;;13.62;7.10;;;;;;;2.02;43.73;100512.38;1671764;84;21028;-77
2022/03/12 08:51:03;;;;;;;15.80;7.12;;;;;;;2.08;42.55;100512.50;1671338;84;21212;-78
2022/03/12 08:53:30;;;;;;;16.10;6.03;;;;;;;2.14;43.23;100511.00;1683110;84;21385;-77
2022/03/12 08:56:00;;;;;;;12.15;5.25;;;;;;;2.28;39.86;100506.66;1670086;84;21050;-77
2022/03/12 08:58:29;;;;;;;11.78;4.55;;;;;;;2.23;38.64;100503.83;1666084;84;21136;-76
2022/03/12 09:00:59;;;;;;;12.70;5.15;;;;;;;2.23;39.22;100503.31;1662554;84;21116;-76
2022/03/12 09:03:26;;;;;;;12.35;5.62;;;;;;;2.33;38.44;100496.41;1666159;84;21158;-77
2022/03/12 09:05:54;;;;;;;16.23;5.30;;;;;;;2.47;38.73;100505.13;1679387;83;21024;-76
2022/03/12 09:08:21;;;;;;;12.60;4.72;;;;;;;2.58;37.86;100499.38;1678870;83;20942;-77
2022/03/12 09:10:48;;;;;;;10.10;4.50;;;;;;;2.66;37.17;100493.53;1664508;83;21004;-78
2022/03/12 09:13:18;;;;;;;10.20;4.12;;;;;;;2.71;37.03;100490.08;1711208;82;21868;-76
2022/03/12 09:15:45;;;;;;;12.25;4.85;;;;;;;2.73;36.61;100502.92;1674962;83;21185;-77
2022/03/12 09:18:13;;;;;;;13.10;5.15;;;;;;;2.70;36.46;100487.87;1699824;83;21502;-79
2022/03/12 09:20:47;;;;;;;11.05;4.90;;;;;;;2.68;36.90;100486.77;1697104;82;20915;-78
2022/03/12 09:23:17;;;;;;;11.53;5.05;;;;;;;2.76;35.88;100484.17;1696546;83;21383;-77
2022/03/12 09:25:45;;;;;;;12.15;5.50;;;;;;;2.82;36.22;100486.99;1687597;83;21767;-76
2022/03/12 09:28:13;;;;;;;9.95;4.78;;;;;;;2.90;36.70;100481.98;1703235;83;21167;-76
2022/03/12 09:30:41;;;;;;;9.78;3.77;;;;;;;2.96;36.19;100484.80;1706388;82;21052;-78
2022/03/12 09:33:08;;;;;;;9.65;4.17;;;;;;;2.96;34.80;100483.44;1702926;83;21624;-77
2022/03/12 09:35:36;;;;;;;8.90;3.70;;;;;;;3.02;34.74;100475.11;1656409;84;21169;-75
2022/03/12 09:38:02;;;;;;;7.35;4.28;;;;;;;3.04;32.22;100468.05;1648101;84;21774;-77
2022/03/12 09:40:30;;;;;;;9.55;4.87;;;;;;;2.93;31.94;100473.88;1694110;83;21149;-76
2022/03/12 09:42:57;;;;;;;7.95;4.40;;;;;;;2.82;32.41;100463.85;1672292;83;20985;-76
2022/03/12 09:45:24;;;;;;;9.75;4.50;;;;;;;2.76;33.90;100461.04;1692592;82;21470;-75
2022/03/12 09:47:52;;;;;;;11.75;5.37;;;;;;;2.98;34.83;100458.99;1690895;82;20996;-76
2022/03/12 09:50:19;;;;;;;13.93;4.83;;;;;;;3.25;35.16;100460.23;1688248;82;21076;-77
2022/03/12 09:52:46;;;;;;;13.18;5.10;;;;;;;3.37;33.84;100454.16;1697553;82;21198;-78
2022/03/12 09:55:13;;;;;;;8.45;4.58;;;;;;;3.22;33.62;100451.20;1704438;82;21113;-76
2022/03/12 09:57:39;;;;;;;13.15;5.35;;;;;;;3.08;33.66;100452.05;1713345;82;21087;-77
2022/03/12 10:00:09;;;;;;;12.15;4.90;;;;;;;3.06;34.22;100444.66;1693986;82;21095;-77
2022/03/12 10:02:39;;;;;;;10.75;4.42;;;;;;;3.13;34.29;100444.80;1674746;83;21257;-75
2022/03/12 10:05:11;;;;;;;11.33;4.10;;;;;;;3.25;33.95;100446.61;1695188;82;21062;-76
2022/03/12 10:07:39;;;;;;;9.65;4.60;;;;;;;3.33;34.13;100448.91;1691799;82;21048;-75
2022/03/12 10:10:09;;;;;;;7.60;4.53;;;;;;;3.45;34.11;100445.26;1695846;82;21091;-77
2022/03/12 10:12:35;;;;;;;9.73;4.78;;;;;;;3.39;33.22;100440.30;1686676;82;21054;-76
2022/03/12 10:15:03;;;;;;;11.45;5.78;;;;;;;3.27;33.95;100444.47;1701104;82;21212;-76
2022/03/12 10:17:31;;;;;;;13.68;5.78;;;;;;;3.33;34.58;100437.18;1701826;83;21027;-76
2022/03/12 10:19:58;;;;;;;8.65;4.72;;;;;;;3.43;34.44;100437.34;1645399;84;21101;-79
2022/03/12 10:22:25;;;;;;;10.48;5.05;;;;;;;3.47;33.83;100441.75;1697029;83;21003;-77
2022/03/12 10:24:51;;;;;;;12.68;5.40;;;;;;;3.38;33.68;100425.83;1696545;83;21434;-77
2022/03/12 10:27:19;;;;;;;7.60;4.50;;;;;;;3.33;33.95;100414.86;1628859;84;21149;-76
2022/03/12 10:29:46;;;;;;;11.18;5.60;;;;;;;3.40;34.69;100411.95;1668890;84;20938;-77
2022/03/12 10:32:29;;;;;;;9.13;4.35;;;;;;;3.52;35.17;100406.41;1666430;84;20939;-77
2022/03/12 10:35:01;;;;;;;9.50;5.22;;;;;;;3.70;34.78;100414.82;1682795;83;21064;-76
2022/03/12 10:37:30;;;;;;;15.32;5.65;;;;;;;3.74;34.05;100399.63;1686385;83;21057;-77
2022/03/12 10:40:13;;;;;;;14.50;5.22;;;;;;;3.70;34.47;100392.20;1639859;84;21282;-78
2022/03/12 10:42:50;;;;;;;12.13;5.20;;;;;;;3.76;35.10;100400.73;1676951;84;21060;-77
2022/03/12 10:45:22;;;;;;;8.45;4.40;;;;;;;3.77;33.29;100395.58;1673262;83;21112;-77
2022/03/12 10:47:53;;;;;;;11.18;4.72;;;;;;;3.74;34.17;100386.52;1675500;84;21005;-77
2022/03/12 10:50:28;;;;;;;9.98;4.47;;;;;;;3.70;34.48;100384.03;1654058;84;21158;-76
2022/03/12 10:52:56;;;;;;;;;;;;;;;3.64;35.11;100377.67;1668597;84;21905;-78
2022/03/12 10:55:38;;;;;;;9.43;4.58;;;;;;;3.69;35.56;100373.66;1672799;84;20476;-77
2022/03/12 10:58:16;;;;;;;10.10;5.33;;;;;;;3.86;35.73;100380.41;1671716;84;21575;-74
2022/03/12 11:00:51;;;;;;;8.40;4.30;;;;;;;4.00;35.67;100371.84;1675103;83;21479;-77
2022/03/12 11:03:23;;;;;;;10.15;4.37;;;;;;;4.03;34.75;100360.42;1657184;84;20956;-76
2022/03/12 11:05:51;;;;;;;10.20;5.20;;;;;;;3.95;35.33;100361.70;1661105;84;21278;-76
2022/03/12 11:08:25;;;;;;;15.98;6.53;;;;;;;4.02;35.05;100358.78;1664918;84;20897;-76
2022/03/12 11:11:06;;;;;;;16.90;7.85;;;;;;;4.07;34.98;100346.56;1662860;84;20961;-76
2022/03/12 11:13:44;;;;;;;19.50;9.05;;;;;;;4.10;35.12;100345.22;1654830;84;21469;-75
2022/03/12 11:16:25;;;;;;;20.60;9.40;;;;;;;4.07;34.81;100338.91;1661172;84;21658;-76
2022/03/12 11:19:01;;;;;;;16.07;7.45;;;;;;;4.00;35.25;100341.31;1635039;84;20888;-76
2022/03/12 11:21:40;;;;;;;15.85;8.65;;;;;;;3.99;35.19;100336.92;1656249;84;20949;-76
2022/03/12 11:24:29;;;;;;;18.40;8.78;;;;;;;4.05;35.37;100341.06;1662072;84;21103;-77